createdAt,value
2019-05-06T00:01:15.027Z,59.68
2019-05-06T00:03:44.461Z,59.31
2019-05-06T00:06:14.539Z,59.14
2019-05-06T00:08:45.154Z,59.51
2019-05-06T00:11:14.599Z,59.89
2019-05-06T00:13:44.528Z,59.88
2019-05-06T00:16:14.454Z,59.78
2019-05-06T00:18:44.925Z,58.66
2019-05-06T00:21:14.877Z,58.98
2019-05-06T00:23:49.075Z,59.49
2019-05-06T00:26:24.354Z,59.81
2019-05-06T00:28:55.538Z,59.93
2019-05-06T00:31:25.366Z,60.39
2019-05-06T00:33:54.739Z,60.22
2019-05-06T00:36:24.109Z,61.84
2019-05-06T00:38:55.149Z,61.53
2019-05-06T00:41:28.750Z,60.74
2019-05-06T00:43:58.210Z,59.71
2019-05-06T00:46:27.586Z,59.81
2019-05-06T00:48:56.979Z,60.95
2019-05-06T00:51:26.366Z,60.63
2019-05-06T00:53:57.393Z,61.11
2019-05-06T00:56:26.778Z,60.10
2019-05-06T00:58:56.166Z,61.93
2019-05-06T01:01:29.434Z,62.25
2019-05-06T01:03:56.631Z,62.25
2019-05-06T01:06:26.080Z,61.30
2019-05-06T01:08:55.469Z,60.46
2019-05-06T01:11:24.919Z,62.57
2019-05-06T01:13:57.015Z,62.91
2019-05-06T01:16:26.403Z,61.48
2019-05-06T01:18:55.845Z,63.08
2019-05-06T01:21:25.301Z,63.40
2019-05-06T01:23:54.759Z,62.99
2019-05-06T01:26:24.412Z,64.07
2019-05-06T01:28:54.632Z,64.13
2019-05-06T01:31:28.911Z,64.71
2019-05-06T01:33:55.448Z,64.89
2019-05-06T01:36:25.074Z,62.98
2019-05-06T01:38:56.120Z,64.20
2019-05-06T01:41:44.635Z,63.97
2019-05-06T01:44:13.758Z,64.55
2019-05-06T01:46:44.727Z,63.98
2019-05-06T01:49:14.285Z,65.60
2019-05-06T01:51:43.924Z,65.49
2019-05-06T01:54:14.111Z,63.54
2019-05-06T01:56:44.496Z,62.78
2019-05-06T01:59:14.258Z,63.67
2019-05-06T02:01:54.793Z,62.25
2019-05-06T02:04:14.703Z,63.35
2019-05-06T02:06:44.091Z,62.22
2019-05-06T02:09:15.698Z,63.73
2019-05-06T02:11:47.943Z,63.67
2019-05-06T02:14:16.604Z,63.86
2019-05-06T02:16:45.991Z,65.08
2019-05-06T02:19:15.402Z,63.44
2019-05-06T02:21:46.423Z,63.83
2019-05-06T02:24:20.577Z,64.14
2019-05-06T02:26:49.973Z,66.07
2019-05-06T02:29:21.013Z,62.84
2019-05-06T02:32:15.366Z,65.61
2019-05-06T02:34:29.359Z,66.19
2019-05-06T02:37:05.945Z,65.07
2019-05-06T02:39:34.254Z,65.62
2019-05-06T02:42:05.551Z,66.85
2019-05-06T02:44:34.930Z,67.15
2019-05-06T02:47:06.330Z,67.17
2019-05-06T02:49:40.305Z,66.75
2019-05-06T02:52:10.178Z,66.18
2019-05-06T02:54:39.606Z,66.39
2019-05-06T02:57:09.074Z,66.93
2019-05-06T02:59:38.465Z,66.43
2019-05-06T03:02:07.860Z,67.20
2019-05-06T03:04:37.241Z,66.80
2019-05-06T03:07:06.878Z,65.41
2019-05-06T03:09:36.266Z,64.89
2019-05-06T03:12:05.715Z,65.04
2019-05-06T03:14:35.091Z,64.80
2019-05-06T03:17:04.632Z,65.02
2019-05-06T03:19:35.701Z,65.82
2019-05-06T03:22:27.856Z,66.28
2019-05-06T03:24:57.590Z,69.05
2019-05-06T03:27:27.019Z,67.46
2019-05-06T03:29:56.406Z,66.14
2019-05-06T03:32:30.805Z,65.67
2019-05-06T03:35:23.043Z,65.81
2019-05-06T03:37:27.960Z,65.77
2019-05-06T03:39:57.361Z,64.83
2019-05-06T03:42:26.742Z,64.78
2019-05-06T03:44:57.783Z,64.76
2019-05-06T03:47:34.517Z,64.79
2019-05-06T03:50:04.828Z,63.38
2019-05-06T03:52:34.616Z,61.34
2019-05-06T03:55:04.548Z,61.78
2019-05-06T03:57:36.128Z,61.49
2019-05-06T04:00:08.930Z,62.30
2019-05-06T04:02:39.724Z,62.76
2019-05-06T04:05:13.272Z,62.32
2019-05-06T04:07:45.425Z,61.45
2019-05-06T04:10:13.804Z,64.09
2019-05-06T04:12:44.799Z,63.12
2019-05-06T04:15:15.123Z,62.84
2019-05-06T04:17:49.155Z,62.46
2019-05-06T04:20:23.714Z,61.78
2019-05-06T04:22:54.905Z,62.09
2019-05-06T04:25:39.384Z,61.47
2019-05-06T04:28:16.548Z,61.61
2019-05-06T04:30:46.299Z,64.65
2019-05-06T04:33:17.639Z,63.10
2019-05-06T04:35:46.500Z,60.95
2019-05-06T04:38:15.807Z,62.20
2019-05-06T04:40:45.352Z,61.03
2019-05-06T04:43:15.384Z,62.97
2019-05-06T04:45:44.820Z,61.27
2019-05-06T04:48:14.728Z,60.94
2019-05-06T04:50:44.773Z,62.58
2019-05-06T04:53:14.149Z,60.90
2019-05-06T04:55:44.676Z,60.86
2019-05-06T04:58:14.195Z,60.82
2019-05-06T05:00:44.769Z,59.93
2019-05-06T05:03:14.423Z,60.58
2019-05-06T05:05:44.912Z,59.96
2019-05-06T05:08:14.738Z,58.94
2019-05-06T05:13:39.516Z,58.20
2019-05-06T05:16:27.428Z,57.49
2019-05-06T05:19:07.359Z,56.16
2019-05-06T05:21:36.814Z,56.55
2019-05-06T05:24:06.266Z,55.62
2019-05-06T05:26:35.792Z,55.33
2019-05-06T05:29:05.721Z,55.33
2019-05-06T05:31:35.667Z,55.80
2019-05-06T05:34:05.841Z,54.76
2019-05-06T05:36:35.779Z,55.65
2019-05-06T05:39:07.088Z,55.86
2019-05-06T05:41:36.530Z,54.85
2019-05-06T05:44:13.532Z,54.61
2019-05-06T05:46:43.925Z,54.44
2019-05-06T05:49:27.246Z,54.85
2019-05-06T05:51:56.977Z,52.17
2019-05-06T05:54:27.345Z,53.56
2019-05-06T05:56:56.885Z,52.38
2019-05-06T05:59:26.318Z,52.15
2019-05-06T06:01:55.715Z,51.68
2019-05-06T06:04:25.245Z,52.16
2019-05-06T06:06:54.607Z,54.35
2019-05-06T06:09:25.635Z,54.54
2019-05-06T06:11:56.926Z,52.44
2019-05-06T06:14:44.453Z,52.50
2019-05-06T06:17:23.253Z,51.30
2019-05-06T06:20:06.188Z,50.73
2019-05-06T06:22:36.398Z,50.78
2019-05-06T06:25:06.982Z,49.59
2019-05-06T06:27:51.864Z,51.03
2019-05-06T06:30:34.645Z,50.77
2019-05-06T06:33:04.121Z,50.03
2019-05-06T06:35:36.216Z,50.42
2019-05-06T06:38:12.332Z,50.19
2019-05-06T06:40:42.581Z,51.74
2019-05-06T06:43:13.600Z,51.01
2019-05-06T06:45:42.973Z,52.62
2019-05-06T06:48:12.608Z,51.13
2019-05-06T06:50:42.708Z,48.29
2019-05-06T06:53:12.431Z,48.21
2019-05-06T06:55:42.832Z,48.47
2019-05-06T06:58:22.589Z,48.85
2019-05-06T07:00:54.444Z,48.44
2019-05-06T07:03:27.000Z,47.08
2019-05-06T07:05:58.089Z,50.48
2019-05-06T07:08:36.513Z,46.28
2019-05-06T07:10:58.575Z,47.76
2019-05-06T07:13:28.036Z,47.20
2019-05-06T07:15:57.422Z,44.28
2019-05-06T07:18:26.805Z,46.25
2019-05-06T07:21:14.146Z,45.77
2019-05-06T07:23:43.537Z,46.32
2019-05-06T07:26:14.585Z,43.45
2019-05-06T07:28:43.981Z,43.95
2019-05-06T07:31:21.099Z,45.04
2019-05-06T07:33:44.582Z,44.30
2019-05-06T07:36:13.957Z,44.95
2019-05-06T07:38:52.980Z,44.96
2019-05-06T07:41:24.337Z,43.55
2019-05-06T07:43:55.575Z,44.36
2019-05-06T07:46:29.388Z,42.80
2019-05-06T07:48:58.783Z,41.08
2019-05-06T07:51:28.241Z,42.86
2019-05-06T07:53:57.619Z,42.01
2019-05-06T07:56:27.085Z,43.27
2019-05-06T07:59:08.188Z,42.97
2019-05-06T08:01:43.918Z,42.74
2019-05-06T08:04:12.650Z,43.73
2019-05-06T08:06:42.645Z,43.50
2019-05-06T08:09:13.062Z,41.30
2019-05-06T08:11:42.731Z,41.62
2019-05-06T08:14:13.081Z,41.62
2019-05-06T08:16:44.539Z,39.81
2019-05-06T08:19:13.958Z,40.16
2019-05-06T08:21:45.125Z,39.50
2019-05-06T08:24:15.544Z,40.31
2019-05-06T08:26:45.074Z,40.50
2019-05-06T08:29:16.050Z,42.44
2019-05-06T08:31:45.428Z,39.44
2019-05-06T08:34:14.871Z,42.10
2019-05-06T08:36:45.915Z,40.43
2019-05-06T08:39:15.437Z,40.40
2019-05-06T08:41:44.827Z,40.65
2019-05-06T08:44:14.213Z,39.79
2019-05-06T08:46:43.778Z,39.48
2019-05-06T08:49:13.266Z,40.13
2019-05-06T08:51:46.967Z,38.57
2019-05-06T08:54:32.365Z,38.49
2019-05-06T08:57:22.744Z,38.80
2019-05-06T08:59:53.589Z,38.63
2019-05-06T09:02:24.171Z,40.00
2019-05-06T09:04:53.560Z,39.61
2019-05-06T09:07:23.892Z,38.67
2019-05-06T09:09:53.382Z,40.35
2019-05-06T09:12:22.780Z,38.88
2019-05-06T09:14:53.246Z,39.09
2019-05-06T09:17:22.898Z,38.67
2019-05-06T09:19:53.417Z,38.28
2019-05-06T09:22:23.600Z,37.51
2019-05-06T09:24:54.129Z,37.55
2019-05-06T09:27:25.151Z,35.67
2019-05-06T09:29:54.614Z,35.53
2019-05-06T09:32:25.730Z,36.96
2019-05-06T09:34:56.768Z,36.14
2019-05-06T09:37:26.150Z,37.05
2019-05-06T09:39:55.539Z,38.28
2019-05-06T09:42:24.938Z,36.73
2019-05-06T09:44:54.632Z,35.44
2019-05-06T09:47:33.036Z,36.27
2019-05-06T09:50:02.975Z,35.53
2019-05-06T09:52:33.256Z,35.78
2019-05-06T09:55:12.748Z,33.81
2019-05-06T09:57:57.934Z,36.43
2019-05-06T10:00:32.723Z,34.31
2019-05-06T10:03:03.095Z,35.91
2019-05-06T10:05:32.504Z,36.02
2019-05-06T10:08:03.310Z,34.17
2019-05-06T10:10:33.065Z,33.67
2019-05-06T10:13:02.926Z,34.57
2019-05-06T10:15:33.820Z,35.05
2019-05-06T10:18:12.704Z,35.00
2019-05-06T10:20:43.449Z,34.16
2019-05-06T10:23:13.771Z,34.11
2019-05-06T10:25:44.186Z,36.21
2019-05-06T10:28:25.309Z,34.71
2019-05-06T10:30:54.772Z,32.80
2019-05-06T10:33:32.453Z,32.65
2019-05-06T10:36:03.260Z,35.10
2019-05-06T10:38:44.973Z,36.40
2019-05-06T10:41:17.417Z,35.31
2019-05-06T10:43:59.428Z,34.88
2019-05-06T10:46:28.905Z,35.40
2019-05-06T10:48:58.293Z,35.98
2019-05-06T10:51:44.212Z,34.82
2019-05-06T10:54:13.623Z,35.28
2019-05-06T10:56:53.847Z,33.10
2019-05-06T10:59:17.449Z,33.42
2019-05-06T11:01:51.341Z,34.37
2019-05-06T11:04:22.547Z,35.74
2019-05-06T11:06:52.655Z,34.77
2019-05-06T11:09:22.682Z,34.29
2019-05-06T11:11:52.211Z,34.18
2019-05-06T11:14:22.887Z,33.01
2019-05-06T11:16:52.462Z,32.60
2019-05-06T11:19:22.405Z,33.87
2019-05-06T11:21:53.066Z,34.02
2019-05-06T11:24:23.105Z,33.25
2019-05-06T11:26:53.391Z,33.67
2019-05-06T11:29:30.147Z,35.29
2019-05-06T11:32:17.358Z,34.12
2019-05-06T11:35:00.143Z,34.31
2019-05-06T11:37:46.940Z,33.70
2019-05-06T11:40:08.266Z,33.29
2019-05-06T11:42:37.820Z,33.91
2019-05-06T11:45:08.037Z,34.58
2019-05-06T11:47:37.495Z,33.74
2019-05-06T11:50:08.778Z,34.06
2019-05-06T11:52:38.403Z,33.46
2019-05-06T11:55:09.502Z,32.31
2019-05-06T11:57:41.679Z,33.36
2019-05-06T12:00:13.768Z,35.46
2019-05-06T12:02:48.050Z,34.20
2019-05-06T12:05:14.828Z,33.23
2019-05-06T12:08:00.483Z,33.49
2019-05-06T12:10:16.415Z,34.66
2019-05-06T12:12:45.798Z,35.06
2019-05-06T12:15:15.687Z,34.19
2019-05-06T12:17:45.152Z,32.46
2019-05-06T12:20:14.969Z,34.37
2019-05-06T12:22:44.356Z,34.49
2019-05-06T12:25:15.478Z,34.89
2019-05-06T12:27:45.378Z,34.00
2019-05-06T12:30:17.457Z,32.33
2019-05-06T12:32:48.556Z,33.43
2019-05-06T12:35:17.959Z,36.64
2019-05-06T12:37:48.973Z,36.22
2019-05-06T12:40:18.493Z,35.53
2019-05-06T12:42:53.229Z,35.22
2019-05-06T12:45:29.275Z,34.68
2019-05-06T12:48:02.804Z,34.01
2019-05-06T12:50:33.275Z,35.51
2019-05-06T12:53:03.731Z,35.75
2019-05-06T12:55:33.779Z,35.49
2019-05-06T12:58:03.226Z,34.91
2019-05-06T13:00:34.475Z,36.07
2019-05-06T13:03:03.964Z,35.48
2019-05-06T13:05:33.355Z,37.01
2019-05-06T13:08:05.122Z,35.80
2019-05-06T13:10:33.879Z,38.46
2019-05-06T13:13:04.179Z,38.04
2019-05-06T13:15:33.776Z,36.93
2019-05-06T13:18:07.029Z,37.84
2019-05-06T13:20:35.139Z,36.97
2019-05-06T13:23:17.140Z,36.64
2019-05-06T13:25:45.194Z,38.57
2019-05-06T13:28:14.842Z,38.48
2019-05-06T13:30:44.233Z,41.18
2019-05-06T13:33:18.583Z,39.22
2019-05-06T13:35:48.031Z,38.67
2019-05-06T13:38:17.403Z,40.24
2019-05-06T13:40:54.075Z,39.81
2019-05-06T13:43:23.468Z,40.04
2019-05-06T13:45:54.636Z,40.70
2019-05-06T13:48:25.692Z,41.58
2019-05-06T13:50:56.703Z,39.53
2019-05-06T13:53:38.695Z,43.01
2019-05-06T13:55:57.194Z,41.86
2019-05-06T13:58:26.560Z,42.87
2019-05-06T14:00:56.720Z,42.30
2019-05-06T14:03:26.097Z,41.24
2019-05-06T14:05:55.567Z,40.11
2019-05-06T14:08:25.079Z,41.94
2019-05-06T14:10:59.653Z,42.48
2019-05-06T14:13:25.558Z,42.33
2019-05-06T14:15:54.953Z,40.51
2019-05-06T14:18:24.356Z,40.79
2019-05-06T14:20:53.720Z,40.52
2019-05-06T14:23:23.108Z,41.27
2019-05-06T14:25:57.002Z,40.24
2019-05-06T14:28:28.033Z,38.76
2019-05-06T14:31:05.003Z,39.39
2019-05-06T14:33:34.385Z,41.37
2019-05-06T14:36:03.780Z,40.57
2019-05-06T14:38:33.683Z,41.75
2019-05-06T14:41:08.674Z,40.57
2019-05-06T14:43:38.901Z,38.23
2019-05-06T14:46:08.289Z,39.60
2019-05-06T14:48:38.747Z,41.68
2019-05-06T14:51:08.136Z,42.01
2019-05-06T14:53:37.516Z,42.03
2019-05-06T14:56:14.658Z,41.41
2019-05-06T14:58:45.686Z,40.16
2019-05-06T15:01:15.064Z,41.80
2019-05-06T15:03:44.729Z,39.88
2019-05-06T15:06:14.116Z,39.72
2019-05-06T15:08:43.656Z,39.42
2019-05-06T15:11:13.688Z,40.43
2019-05-06T15:13:43.702Z,39.85
2019-05-06T15:16:13.692Z,38.52
2019-05-06T15:18:43.855Z,38.47
2019-05-06T15:21:33.342Z,38.16
2019-05-06T15:23:44.888Z,36.32
2019-05-06T15:26:14.344Z,38.74
2019-05-06T15:28:43.742Z,40.46
2019-05-06T15:31:17.702Z,39.31
2019-05-06T15:33:52.917Z,39.49
2019-05-06T15:36:26.689Z,39.17
2019-05-06T15:38:56.072Z,38.19
2019-05-06T15:41:25.468Z,39.17
2019-05-06T15:43:54.842Z,42.53
2019-05-06T15:46:24.230Z,40.63
2019-05-06T15:48:53.610Z,38.67
2019-05-06T15:51:24.801Z,38.00
2019-05-06T15:53:54.275Z,38.23
2019-05-06T15:56:23.645Z,39.20
2019-05-06T15:58:53.047Z,37.76
2019-05-06T16:01:23.578Z,38.35
2019-05-06T16:03:53.488Z,38.21
2019-05-06T16:06:23.647Z,39.37
2019-05-06T16:08:53.760Z,38.46
2019-05-06T16:11:24.013Z,39.79
2019-05-06T16:13:54.539Z,40.30
2019-05-06T16:16:24.449Z,39.71
2019-05-06T16:18:54.649Z,39.31
2019-05-06T16:21:24.994Z,40.01
2019-05-06T16:24:02.408Z,39.08
2019-05-06T16:26:30.875Z,38.93
2019-05-06T16:29:02.381Z,39.22
2019-05-06T16:31:33.531Z,39.52
2019-05-06T16:34:03.094Z,38.88
2019-05-06T16:36:32.876Z,39.17
2019-05-06T16:39:03.274Z,39.15
2019-05-06T16:41:35.365Z,37.04
2019-05-06T16:44:04.897Z,38.85
2019-05-06T16:46:34.373Z,39.16
2019-05-06T16:49:03.809Z,39.00
2019-05-06T16:51:33.257Z,37.56
2019-05-06T16:54:02.678Z,37.33
2019-05-06T16:56:36.365Z,38.28
2019-05-06T16:59:07.522Z,39.32
2019-05-06T17:01:38.616Z,39.38
2019-05-06T17:04:23.201Z,39.30
2019-05-06T17:06:53.276Z,38.87
2019-05-06T17:09:27.178Z,38.66
2019-05-06T17:11:53.749Z,38.96
2019-05-06T17:14:23.423Z,39.16
2019-05-06T17:16:52.887Z,39.58
2019-05-06T17:19:23.005Z,39.11
2019-05-06T17:21:53.302Z,39.04
2019-05-06T17:24:22.687Z,37.73
2019-05-06T17:26:56.089Z,38.73
2019-05-06T17:29:24.802Z,39.41
2019-05-06T17:31:55.825Z,39.25
2019-05-06T17:34:26.931Z,39.42
2019-05-06T17:36:57.966Z,38.63
2019-05-06T17:39:27.354Z,39.43
2019-05-06T17:41:56.783Z,38.39
2019-05-06T17:44:26.176Z,38.93
2019-05-06T17:47:02.934Z,38.50
2019-05-06T17:49:34.751Z,38.50
2019-05-06T17:52:05.942Z,38.92
2019-05-06T17:54:35.393Z,40.36
2019-05-06T17:57:05.359Z,38.81
2019-05-06T17:59:37.485Z,39.20
2019-05-06T18:02:10.314Z,40.25
2019-05-06T18:04:39.843Z,41.92
2019-05-06T18:07:09.297Z,41.06
2019-05-06T18:09:39.753Z,40.62
2019-05-06T18:12:12.076Z,40.75
2019-05-06T18:14:43.519Z,41.39
2019-05-06T18:17:12.897Z,41.31
2019-05-06T18:19:42.348Z,41.94
2019-05-06T18:22:13.127Z,42.12
2019-05-06T18:24:42.763Z,41.99
2019-05-06T18:27:13.120Z,43.51
2019-05-06T18:29:42.723Z,44.46
2019-05-06T18:32:12.751Z,44.16
2019-05-06T18:34:42.213Z,43.38
2019-05-06T18:37:12.761Z,43.55
2019-05-06T18:39:42.677Z,43.10
2019-05-06T18:42:19.093Z,43.77
2019-05-06T18:44:43.230Z,42.93
2019-05-06T18:47:12.606Z,43.87
2019-05-06T18:49:42.697Z,44.67
2019-05-06T18:52:13.232Z,43.62
2019-05-06T18:54:43.181Z,43.66
2019-05-06T18:57:13.485Z,44.29
2019-05-06T18:59:42.950Z,45.38
2019-05-06T19:02:13.199Z,44.46
2019-05-06T19:04:47.146Z,43.63
2019-05-06T19:07:17.278Z,43.79
2019-05-06T19:09:57.247Z,44.89
2019-05-06T19:12:31.878Z,44.79
2019-05-06T19:14:57.800Z,46.65
2019-05-06T19:17:27.178Z,46.00
2019-05-06T19:19:58.605Z,46.13
2019-05-06T19:22:28.130Z,46.36
2019-05-06T19:24:57.546Z,46.77
2019-05-06T19:27:26.990Z,45.92
2019-05-06T19:29:56.386Z,46.12
2019-05-06T19:32:26.208Z,45.89
2019-05-06T19:34:55.600Z,47.22
2019-05-06T19:37:25.945Z,47.19
2019-05-06T19:39:55.451Z,47.89
2019-05-06T19:42:24.902Z,48.32
2019-05-06T19:44:54.290Z,48.42
2019-05-06T19:47:23.944Z,46.33
2019-05-06T19:49:53.438Z,46.28
2019-05-06T19:52:24.964Z,45.72
2019-05-06T19:54:53.887Z,45.69
2019-05-06T19:57:23.346Z,44.80
2019-05-06T19:59:52.800Z,44.80
2019-05-06T20:02:25.207Z,45.27
2019-05-06T20:04:54.989Z,45.76
2019-05-06T20:07:27.097Z,45.88
2019-05-06T20:10:03.213Z,46.04
2019-05-06T20:12:36.635Z,45.33
2019-05-06T20:15:37.644Z,44.96
2019-05-06T20:18:09.163Z,44.53
2019-05-06T20:20:38.871Z,42.55
2019-05-06T20:23:08.499Z,43.71
2019-05-06T20:25:38.087Z,44.96
2019-05-06T20:28:08.607Z,46.51
2019-05-06T20:30:38.058Z,46.20
2019-05-06T20:33:09.072Z,46.18
2019-05-06T20:35:42.965Z,48.61
2019-05-06T20:38:12.382Z,47.78
2019-05-06T20:40:43.131Z,48.02
2019-05-06T20:43:20.060Z,48.63
2019-05-06T20:45:44.852Z,48.89
2019-05-06T20:48:14.302Z,47.41
2019-05-06T20:50:43.706Z,46.99
2019-05-06T20:55:39.380Z,47.36
2019-05-06T20:58:08.794Z,46.95
2019-05-06T21:00:38.158Z,46.95
2019-05-06T21:03:07.536Z,46.02
2019-05-06T21:05:36.986Z,44.85
2019-05-06T21:08:06.368Z,44.89
2019-05-06T21:10:38.174Z,45.30
2019-05-06T21:13:07.626Z,43.88
2019-05-06T21:15:37.009Z,43.97
2019-05-06T21:18:06.455Z,45.44
2019-05-06T21:20:35.905Z,46.99
2019-05-06T21:23:05.297Z,46.60
2019-05-06T21:25:34.674Z,45.72
2019-05-06T21:28:05.138Z,48.00
2019-05-06T21:30:34.596Z,46.92
2019-05-06T21:33:04.244Z,45.93
2019-05-06T21:35:35.039Z,45.90
2019-05-06T21:38:04.498Z,47.34
2019-05-06T21:40:33.886Z,49.31
2019-05-06T21:43:03.344Z,49.59
2019-05-06T21:45:33.257Z,49.51
2019-05-06T21:48:03.088Z,50.37
2019-05-06T21:50:33.207Z,50.85
2019-05-06T21:53:03.055Z,51.02
2019-05-06T21:55:32.553Z,52.94
2019-05-06T21:58:03.451Z,52.31
2019-05-06T22:00:37.591Z,53.32
2019-05-06T22:03:07.387Z,51.93
2019-05-06T22:05:36.839Z,53.88
2019-05-06T22:08:06.210Z,56.01
2019-05-06T22:10:35.588Z,56.94
2019-05-06T22:13:05.031Z,57.10
2019-05-06T22:15:34.486Z,56.18
2019-05-06T22:18:03.943Z,56.61
2019-05-06T22:20:34.979Z,56.04
2019-05-06T22:23:04.356Z,57.23
2019-05-06T22:25:33.739Z,57.17
2019-05-06T22:28:03.122Z,58.56
2019-05-06T22:30:32.969Z,59.25
2019-05-06T22:33:03.641Z,58.07
2019-05-06T22:35:33.020Z,60.48
2019-05-06T22:38:02.909Z,61.72
2019-05-06T22:40:32.717Z,61.64
2019-05-06T22:43:03.168Z,60.04
2019-05-06T22:45:33.044Z,61.15
2019-05-06T22:48:04.592Z,61.07
2019-05-06T22:50:33.965Z,61.91
2019-05-06T22:53:03.352Z,61.41
2019-05-06T22:55:33.056Z,62.12
2019-05-06T22:58:02.609Z,63.00
2019-05-06T23:00:33.590Z,63.09
2019-05-06T23:03:04.601Z,62.43
2019-05-06T23:05:33.982Z,64.69
2019-05-06T23:08:03.373Z,64.84
2019-05-06T23:10:33.755Z,64.76
2019-05-06T23:13:03.235Z,64.54
2019-05-06T23:15:34.215Z,63.94
2019-05-06T23:18:03.705Z,65.50
2019-05-06T23:20:33.088Z,65.22
2019-05-06T23:23:04.938Z,65.57
2019-05-06T23:25:34.094Z,62.64
2019-05-06T23:28:03.546Z,65.88
2019-05-06T23:30:33.623Z,68.73
2019-05-06T23:33:03.830Z,68.57
2019-05-06T23:35:33.984Z,68.62
2019-05-06T23:38:39.974Z,68.46
2019-05-06T23:41:45.263Z,67.44
2019-05-06T23:44:56.268Z,66.18
2019-05-06T23:48:02.784Z,65.11
2019-05-06T23:51:08.767Z,65.11
2019-05-06T23:54:14.974Z,66.06
2019-05-06T23:56:45.676Z,61.09
2019-05-06T23:59:17.303Z,62.99
